< Cyclone 201905 2019 Season Cyclone 201912 >
Cyclone 201907 (Penny)
General InformationDetailed Track InformationTrack Information on Google MapsList of All Images || ResourceGoogle EarthGE AnimationAtom FeedGeoJSON
Detalied Best Track Wind (Time Zone = UTC)
Year Month Day Hour Lat. Long. Wind (kt) Gust (kt) Direc. of Major Storm Axis Radius of Major Storm Axis (nm) Radius of Minor Storm Axis (nm) Direc. of Major Gale Axis Radius of Major Gale Axis (nm) Radius of Minor Gale Axis (nm) Image
2018 12 28 00 -13.3 147.0 20 45 symmetric - - symmetric - - Image
2018 12 28 06 -13.3 147.0 20 45 symmetric - - symmetric - - Image
2018 12 28 12 -11.5 144.9 20 45 symmetric - - symmetric - - Image
2018 12 29 00 -12.2 144.0 20 45 symmetric - - symmetric - - Image
2018 12 29 06 -12.9 144.1 20 45 symmetric - - symmetric - - Image
2018 12 29 12 -12.9 144.1 20 45 symmetric - - symmetric - - Image
2018 12 29 18 -13.1 143.9 20 45 symmetric - - symmetric - - Image
2018 12 30 00 -13.2 143.6 20 45 symmetric - - symmetric - - Image
2018 12 30 03 -13.2 143.2 15 45 symmetric - - symmetric - - Image
2018 12 30 06 -13.1 142.9 15 45 symmetric - - symmetric - - Image
2018 12 30 12 -12.9 142.0 20 45 symmetric - - symmetric - - Image
2018 12 30 18 -12.8 140.8 25 45 symmetric - - symmetric - - Image
2018 12 30 21 -12.8 140.3 25 45 symmetric - - symmetric - - Image
2018 12 31 00 -12.9 140.0 25 45 symmetric - - symmetric - - Image
2018 12 31 03 -12.7 139.7 30 45 symmetric - - symmetric - - Image
2018 12 31 06 -12.5 139.5 30 45 symmetric - - symmetric - - Image
2018 12 31 09 -12.4 140.0 30 45 symmetric - - symmetric - - Image
2018 12 31 12 -12.7 140.3 30 45 symmetric - - symmetric - - Image
2018 12 31 15 -12.7 140.5 30 45 symmetric - - symmetric - - Image
2018 12 31 18 -12.6 140.6 30 45 symmetric - - symmetric - - Image
2018 12 31 21 -12.6 140.9 40 55 symmetric - - symmetric - - Image
2019 1 1 00 -12.6 141.1 40 55 symmetric - - symmetric - - Image
2019 1 1 03 -12.6 141.5 40 55 symmetric - - symmetric - - Image
2019 1 1 05 -12.6 141.7 40 55 symmetric - - symmetric - - Image
2019 1 1 06 -12.7 141.9 40 55 symmetric - - symmetric - - Image
2019 1 1 09 -12.5 142.3 35 50 symmetric - - symmetric - - Image
2019 1 1 12 -12.5 142.8 35 50 symmetric - - symmetric - - Image
2019 1 1 18 -12.8 143.6 35 50 symmetric - - symmetric - - Image
2019 1 2 00 -12.7 144.9 30 45 symmetric - - symmetric - - Image
2019 1 2 06 -12.8 146.0 35 50 symmetric - - symmetric - - Image
2019 1 2 12 -13.0 147.6 40 55 symmetric - - symmetric - - Image
2019 1 2 18 -13.2 150.0 45 65 symmetric - - symmetric - - Image
2019 1 2 21 -13.7 151.6 45 -1 symmetric - - symmetric - - Image
2019 1 2 22 -14.0 151.8 45 -1 symmetric - - symmetric - - Image
2019 1 2 23 -14.0 152.0 45 -1 symmetric - - symmetric - - Image
2019 1 3 00 -14.1 152.2 45 65 symmetric - - symmetric - - Image
2019 1 3 03 -14.6 153.2 45 65 symmetric - - symmetric - - Image
2019 1 3 06 -14.8 153.6 45 65 symmetric - - symmetric - - Image
2019 1 3 09 -15.1 154.3 48.3333 -1 symmetric - - symmetric - - Image
2019 1 3 12 -15.3 154.5 50 70 symmetric - - symmetric - - Image
2019 1 3 15 -15.5 155.2 50 -1 symmetric - - symmetric - - Image
2019 1 3 18 -15.6 155.4 50 70 symmetric - - symmetric - - Image
2019 1 3 21 -15.7 155.6 50 -1 symmetric - - symmetric - - Image
2019 1 4 00 -15.8 155.8 50 70 symmetric - - symmetric - - Image
2019 1 4 03 -15.9 155.9 50 70 symmetric - - symmetric - - Image
2019 1 4 06 -15.9 156.0 50 70 symmetric - - symmetric - - Image
2019 1 4 09 -15.9 156.0 45 65 symmetric - - symmetric - - Image
2019 1 4 12 -16.0 155.9 45 65 symmetric - - symmetric - - Image
2019 1 4 15 -15.9 155.8 45 65 symmetric - - symmetric - - Image
2019 1 4 18 -15.8 155.7 45 65 symmetric - - symmetric - - Image
2019 1 4 21 -15.7 155.7 45 65 symmetric - - symmetric - - Image
2019 1 5 00 -15.6 155.6 40 55 symmetric - - symmetric - - Image
2019 1 5 03 -15.6 155.7 35 50 symmetric - - symmetric - - Image
2019 1 5 06 -15.6 155.9 35 50 symmetric - - symmetric - - Image
2019 1 5 09 -15.7 156.1 35 50 symmetric - - symmetric - - Image
2019 1 5 12 -15.8 156.1 35 50 symmetric - - symmetric - - Image
2019 1 5 15 -16.0 156.0 35 50 symmetric - - symmetric - - Image
2019 1 5 18 -16.1 155.9 35 50 symmetric - - symmetric - - Image
2019 1 5 21 -16.3 155.9 35 50 symmetric - - symmetric - - Image
2019 1 6 00 -16.8 155.2 35 50 symmetric - - symmetric - - Image
2019 1 6 03 -16.9 154.9 35 50 symmetric - - symmetric - - Image
2019 1 6 06 -16.9 154.5 35 50 symmetric - - symmetric - - Image
2019 1 6 09 -16.8 154.6 35 50 symmetric - - symmetric - - Image
2019 1 6 12 -16.9 154.6 35 50 symmetric - - symmetric - - Image
2019 1 6 15 -17.1 154.5 35 50 symmetric - - symmetric - - Image
2019 1 6 18 -17.4 154.2 35 50 symmetric - - symmetric - - Image
2019 1 7 00 -17.7 153.3 30 50 symmetric - - symmetric - - Image
2019 1 7 06 -18.0 152.6 30 50 symmetric - - symmetric - - Image
2019 1 7 12 -18.3 151.9 35 50 symmetric - - symmetric - - Image
2019 1 7 18 -18.7 151.2 35 50 symmetric - - symmetric - - Image
2019 1 8 00 -19.2 150.8 35 50 symmetric - - symmetric - - Image
2019 1 8 06 -19.8 150.0 30 50 symmetric - - symmetric - - Image
2019 1 8 12 -19.7 149.8 30 45 symmetric - - symmetric - - Image
2019 1 8 18 -19.8 149.3 30 45 symmetric - - symmetric - - Image
2019 1 9 00 -19.9 148.5 25 40 symmetric - - symmetric - - Image
< Cyclone 201905 2019 Season Cyclone 201912 >

Help